createdAt,value
2018-03-22T00:01:53.887Z,0.90
2018-03-22T00:04:29.085Z,0.90
2018-03-22T00:07:04.395Z,0.90
2018-03-22T00:09:39.977Z,0.90
2018-03-22T00:12:15.330Z,1.00
2018-03-22T00:14:50.602Z,1.00
2018-03-22T00:17:25.859Z,1.00
2018-03-22T00:20:01.155Z,1.10
2018-03-22T00:22:39.335Z,1.10
2018-03-22T00:25:14.563Z,1.10
2018-03-22T00:27:50.537Z,1.10
2018-03-22T00:30:26.110Z,1.10
2018-03-22T00:33:01.283Z,1.20
2018-03-22T00:35:36.500Z,1.20
2018-03-22T00:38:11.647Z,1.10
2018-03-22T00:40:47.041Z,1.00
2018-03-22T00:43:22.237Z,1.20
2018-03-22T00:45:58.335Z,1.10
2018-03-22T00:48:33.477Z,1.10
2018-03-22T00:51:08.829Z,1.20
2018-03-22T00:53:44.081Z,1.20
2018-03-22T00:56:19.421Z,1.10
2018-03-22T00:58:54.562Z,1.10
2018-03-22T01:01:29.984Z,1.10
2018-03-22T01:04:05.183Z,1.10
2018-03-22T01:06:41.561Z,1.30
2018-03-22T01:09:17.550Z,1.20
2018-03-22T01:11:52.987Z,1.20
2018-03-22T01:14:28.306Z,1.20
2018-03-22T01:17:03.649Z,1.40
2018-03-22T01:19:38.918Z,1.20
2018-03-22T01:22:14.127Z,1.10
2018-03-22T01:24:50.111Z,1.00
2018-03-22T01:27:25.354Z,0.90
2018-03-22T01:30:00.773Z,1.00
2018-03-22T01:32:35.942Z,1.00
2018-03-22T01:35:11.167Z,1.10
2018-03-22T01:37:46.743Z,1.10
2018-03-22T01:40:22.691Z,1.10
2018-03-22T01:42:57.869Z,1.10
2018-03-22T01:45:33.088Z,1.10
2018-03-22T01:48:09.137Z,1.10
2018-03-22T01:50:44.473Z,1.00
2018-03-22T01:53:19.833Z,1.00
2018-03-22T01:55:55.547Z,0.90
2018-03-22T01:58:30.819Z,1.00
2018-03-22T02:01:06.129Z,0.90
2018-03-22T02:03:41.316Z,1.00
2018-03-22T02:06:16.640Z,1.00
2018-03-22T02:08:51.949Z,1.00
2018-03-22T02:11:27.266Z,1.00
2018-03-22T02:14:02.567Z,1.00
2018-03-22T02:16:38.118Z,0.90
2018-03-22T02:19:13.379Z,1.00
2018-03-22T02:21:48.844Z,1.00
2018-03-22T02:24:23.995Z,1.00
2018-03-22T02:26:59.978Z,1.00
2018-03-22T02:29:35.942Z,1.00
2018-03-22T02:32:12.101Z,1.00
2018-03-22T02:34:47.444Z,0.90
2018-03-22T02:37:22.932Z,1.00
2018-03-22T02:39:58.186Z,1.00
2018-03-22T02:42:33.735Z,0.90
2018-03-22T02:45:09.018Z,1.00
2018-03-22T02:47:44.343Z,1.00
2018-03-22T02:50:19.704Z,0.90
2018-03-22T02:52:55.161Z,0.90
2018-03-22T02:55:30.276Z,1.10
2018-03-22T02:58:05.630Z,1.00
2018-03-22T03:00:40.903Z,0.90
2018-03-22T03:03:16.271Z,1.00
2018-03-22T03:05:51.527Z,1.00
2018-03-22T03:08:27.505Z,0.90
2018-03-22T03:11:03.505Z,0.90
2018-03-22T03:13:38.847Z,0.90
2018-03-22T03:16:14.600Z,0.80
2018-03-22T03:18:49.715Z,0.90
2018-03-22T03:21:25.044Z,0.90
2018-03-22T03:24:00.367Z,0.90
2018-03-22T03:26:36.338Z,0.90
2018-03-22T03:29:12.296Z,0.80
2018-03-22T03:31:47.750Z,0.80
2018-03-22T03:34:23.058Z,0.70
2018-03-22T03:36:58.340Z,0.80
2018-03-22T03:39:34.334Z,0.70
2018-03-22T03:42:09.778Z,0.70
2018-03-22T03:44:44.958Z,0.70
2018-03-22T03:47:20.336Z,0.70
2018-03-22T03:49:55.640Z,0.70
2018-03-22T03:52:31.128Z,0.60
2018-03-22T03:55:06.477Z,0.70
2018-03-22T03:57:42.490Z,0.60
2018-03-22T04:00:18.443Z,0.60
2018-03-22T04:02:53.891Z,0.60
2018-03-22T04:05:29.298Z,0.60
2018-03-22T04:08:04.573Z,0.60
2018-03-22T04:10:39.788Z,0.60
2018-03-22T04:13:15.129Z,0.60
2018-03-22T04:15:51.094Z,0.60
2018-03-22T04:18:26.403Z,0.50
2018-03-22T04:21:01.983Z,0.60
2018-03-22T04:23:37.428Z,0.50
2018-03-22T04:26:12.616Z,0.60
2018-03-22T04:28:47.856Z,0.50
2018-03-22T04:31:23.177Z,0.50
2018-03-22T04:33:59.107Z,0.40
2018-03-22T04:36:35.144Z,0.40
2018-03-22T04:39:10.413Z,0.40
2018-03-22T04:41:45.780Z,0.40
2018-03-22T04:44:21.000Z,0.40
2018-03-22T04:46:56.153Z,0.40
2018-03-22T04:49:31.309Z,0.40
2018-03-22T04:52:06.506Z,0.40
2018-03-22T04:54:42.397Z,0.40
2018-03-22T04:57:18.314Z,0.40
2018-03-22T04:59:53.527Z,0.40
2018-03-22T05:02:29.590Z,0.30
2018-03-22T05:05:05.589Z,0.30
2018-03-22T05:07:41.044Z,0.30
2018-03-22T05:10:16.198Z,0.30
2018-03-22T05:12:51.553Z,0.30
2018-03-22T05:15:27.613Z,0.30
2018-03-22T05:18:02.801Z,0.30
2018-03-22T05:20:37.981Z,0.40
2018-03-22T05:23:13.578Z,0.30
2018-03-22T05:25:49.930Z,0.30
2018-03-22T05:28:37.997Z,0.40
2018-03-22T05:31:14.376Z,0.30
2018-03-22T05:33:50.897Z,0.30
2018-03-22T05:36:28.674Z,0.30
2018-03-22T05:39:07.389Z,0.40
2018-03-22T05:41:42.632Z,0.30
2018-03-22T05:44:17.874Z,0.50
2018-03-22T05:46:53.216Z,0.50
2018-03-22T05:49:37.723Z,0.40
2018-03-22T05:52:13.066Z,0.40
2018-03-22T05:54:48.567Z,0.40
2018-03-22T05:57:24.558Z,0.30
2018-03-22T06:00:00.541Z,0.30
2018-03-22T06:02:35.972Z,0.20
2018-03-22T06:05:12.058Z,0.30
2018-03-22T06:07:48.322Z,0.30
2018-03-22T06:10:23.675Z,0.30
2018-03-22T06:12:58.976Z,0.40
2018-03-22T06:15:34.298Z,0.50
2018-03-22T06:18:09.631Z,0.60
2018-03-22T06:20:45.013Z,0.60
2018-03-22T06:23:20.255Z,0.60
2018-03-22T06:25:56.226Z,0.60
2018-03-22T06:28:32.503Z,0.70
2018-03-22T06:31:07.715Z,0.60
2018-03-22T06:33:43.062Z,0.70
2018-03-22T06:36:18.351Z,0.70
2018-03-22T06:38:54.281Z,0.80
2018-03-22T06:41:29.559Z,0.70
2018-03-22T06:44:05.152Z,0.80
2018-03-22T06:46:40.365Z,0.90
2018-03-22T06:49:15.640Z,0.90
2018-03-22T06:51:50.886Z,0.90
2018-03-22T06:54:26.147Z,0.80
2018-03-22T06:57:01.436Z,0.80
2018-03-22T06:59:36.771Z,0.80
2018-03-22T07:02:11.920Z,0.80
2018-03-22T07:04:47.019Z,0.80
2018-03-22T07:07:22.945Z,0.70
2018-03-22T07:09:58.277Z,0.70
2018-03-22T07:12:33.651Z,0.80
2018-03-22T07:15:09.027Z,0.80
2018-03-22T07:17:44.962Z,0.90
2018-03-22T07:20:21.133Z,0.90
2018-03-22T07:22:56.988Z,1.00
2018-03-22T07:25:33.214Z,1.10
2018-03-22T07:28:08.541Z,1.10
2018-03-22T07:30:43.751Z,1.20
2018-03-22T07:33:19.441Z,1.10
2018-03-22T07:35:54.719Z,1.20
2018-03-22T07:38:30.113Z,1.20
2018-03-22T07:41:05.378Z,1.30
2018-03-22T07:43:43.776Z,1.30
2018-03-22T07:46:19.102Z,1.30
2018-03-22T07:48:54.353Z,1.30
2018-03-22T07:51:29.838Z,1.30
2018-03-22T07:54:05.133Z,1.20
2018-03-22T07:56:41.168Z,1.40
2018-03-22T07:59:16.485Z,1.30
2018-03-22T08:01:51.802Z,1.40
2018-03-22T08:04:26.958Z,1.30
2018-03-22T08:07:02.166Z,1.40
2018-03-22T08:09:37.460Z,1.50
2018-03-22T08:12:12.817Z,1.50
2018-03-22T08:14:48.069Z,1.50
2018-03-22T08:17:23.684Z,1.40
2018-03-22T08:19:59.033Z,1.40
2018-03-22T08:22:34.674Z,1.50
2018-03-22T08:25:10.003Z,1.60
2018-03-22T08:27:45.818Z,1.70
2018-03-22T08:30:20.951Z,1.70
2018-03-22T08:32:56.127Z,1.80
2018-03-22T08:35:31.354Z,1.80
2018-03-22T08:38:06.707Z,1.80
2018-03-22T08:40:41.969Z,1.90
2018-03-22T08:43:17.287Z,1.90
2018-03-22T08:45:52.594Z,2.00
2018-03-22T08:48:27.866Z,1.90
2018-03-22T08:51:03.203Z,1.80
2018-03-22T08:53:38.883Z,1.70
2018-03-22T08:56:14.239Z,1.80
2018-03-22T08:58:49.665Z,1.80
2018-03-22T09:01:24.837Z,1.70
2018-03-22T09:04:00.870Z,1.50
2018-03-22T09:06:36.250Z,1.50
2018-03-22T09:09:11.648Z,1.40
2018-03-22T09:11:47.568Z,1.20
2018-03-22T09:14:22.833Z,1.20
2018-03-22T09:16:57.969Z,1.30
2018-03-22T09:19:34.360Z,1.10
2018-03-22T09:22:10.339Z,1.10
2018-03-22T09:24:46.352Z,1.00
2018-03-22T09:27:22.199Z,1.00
2018-03-22T09:29:57.496Z,1.00
2018-03-22T09:32:32.846Z,1.00
2018-03-22T09:35:08.039Z,1.00
2018-03-22T09:37:43.477Z,0.90
2018-03-22T09:40:19.177Z,1.00
2018-03-22T09:42:54.830Z,0.90
2018-03-22T09:45:30.175Z,0.80
2018-03-22T09:48:06.369Z,0.70
2018-03-22T09:50:42.329Z,0.60
2018-03-22T09:53:17.591Z,0.60
2018-03-22T09:55:52.752Z,0.60
2018-03-22T09:58:28.097Z,0.60
2018-03-22T10:01:03.390Z,0.60
2018-03-22T10:03:38.534Z,0.70
2018-03-22T10:06:13.930Z,0.70
2018-03-22T10:08:50.245Z,0.80
2018-03-22T10:11:25.341Z,0.70
2018-03-22T10:14:00.653Z,0.80
2018-03-22T10:16:35.975Z,0.80
2018-03-22T10:19:11.546Z,0.80
2018-03-22T10:21:46.901Z,0.80
2018-03-22T10:24:22.150Z,0.80
2018-03-22T10:26:57.422Z,0.80
2018-03-22T10:29:32.602Z,0.80
2018-03-22T10:32:07.932Z,0.80
2018-03-22T10:34:43.059Z,0.80
2018-03-22T10:37:18.450Z,0.80
2018-03-22T10:39:54.486Z,0.80
2018-03-22T10:42:29.754Z,0.80
2018-03-22T10:45:05.223Z,0.80
2018-03-22T10:47:40.594Z,0.90
2018-03-22T10:50:15.858Z,1.00
2018-03-22T10:52:51.497Z,1.00
2018-03-22T10:55:26.822Z,1.10
2018-03-22T10:58:02.387Z,1.10
2018-03-22T11:00:38.438Z,1.00
2018-03-22T11:03:19.811Z,1.00
2018-03-22T11:05:55.117Z,1.10
2018-03-22T11:08:30.477Z,1.10
2018-03-22T11:11:05.790Z,1.10
2018-03-22T11:13:42.014Z,1.20
2018-03-22T11:16:17.449Z,1.20
2018-03-22T11:18:52.951Z,1.30
2018-03-22T11:21:28.762Z,1.30
2018-03-22T11:24:04.469Z,1.40
2018-03-22T11:26:39.732Z,1.40
2018-03-22T11:29:15.720Z,1.40
2018-03-22T11:31:51.719Z,1.50
2018-03-22T11:34:27.618Z,1.50
2018-03-22T11:37:03.652Z,1.50
2018-03-22T11:39:39.014Z,1.40
2018-03-22T11:42:14.275Z,1.40
2018-03-22T11:44:49.756Z,1.50
2018-03-22T11:47:25.012Z,1.50
2018-03-22T11:50:00.350Z,1.50
2018-03-22T11:52:35.878Z,1.60
2018-03-22T11:55:11.973Z,1.60
2018-03-22T11:57:47.218Z,1.60
2018-03-22T12:00:23.024Z,1.60
2018-03-22T12:02:59.488Z,1.60
2018-03-22T12:05:34.687Z,1.60
2018-03-22T12:08:09.989Z,1.60
2018-03-22T12:10:45.252Z,1.60
2018-03-22T12:13:20.388Z,1.60
2018-03-22T12:15:55.920Z,1.60
2018-03-22T12:18:32.055Z,1.70
2018-03-22T12:21:07.779Z,1.70
2018-03-22T12:23:43.161Z,1.70
2018-03-22T12:26:18.349Z,1.60
2018-03-22T12:28:54.272Z,1.70
2018-03-22T12:31:30.189Z,1.80
2018-03-22T12:34:05.379Z,1.70
2018-03-22T12:36:41.062Z,1.80
2018-03-22T12:39:16.241Z,1.70
2018-03-22T12:41:51.688Z,1.80
2018-03-22T12:44:26.950Z,1.80
2018-03-22T12:47:02.487Z,1.80
2018-03-22T12:49:37.816Z,1.80
2018-03-22T12:52:12.992Z,1.80
2018-03-22T12:54:48.187Z,1.80
2018-03-22T12:57:23.551Z,1.80
2018-03-22T12:59:58.667Z,1.90
2018-03-22T13:02:33.865Z,2.00
2018-03-22T13:05:09.198Z,1.90
2018-03-22T13:07:44.808Z,1.90
2018-03-22T13:10:19.953Z,1.90
2018-03-22T13:12:55.288Z,2.00
2018-03-22T13:15:31.202Z,2.20
2018-03-22T13:18:06.474Z,2.20
2018-03-22T13:20:42.535Z,2.20
2018-03-22T13:23:17.765Z,2.20
2018-03-22T13:25:53.154Z,2.20
2018-03-22T13:28:28.734Z,2.20
2018-03-22T13:31:03.836Z,2.20
2018-03-22T13:33:39.860Z,2.30
2018-03-22T13:36:15.855Z,2.40
2018-03-22T13:38:51.147Z,2.40
2018-03-22T13:41:26.371Z,2.40
2018-03-22T13:44:01.788Z,2.50
2018-03-22T13:46:37.736Z,2.50
2018-03-22T13:49:13.728Z,2.50
2018-03-22T13:51:49.033Z,2.50
2018-03-22T13:54:24.242Z,2.60
2018-03-22T13:56:59.685Z,2.70
2018-03-22T13:59:34.909Z,2.80
2018-03-22T14:02:10.267Z,2.80
2018-03-22T14:04:45.442Z,2.70
2018-03-22T14:07:20.698Z,2.70
2018-03-22T14:09:55.842Z,2.80
2018-03-22T14:12:31.133Z,2.80
2018-03-22T14:15:06.466Z,2.80
2018-03-22T14:17:42.430Z,3.00
2018-03-22T14:20:18.398Z,2.90
2018-03-22T14:22:53.636Z,2.90
2018-03-22T14:25:28.832Z,2.90
2018-03-22T14:28:04.731Z,2.90
2018-03-22T14:30:40.014Z,2.90
2018-03-22T14:33:16.004Z,2.90
2018-03-22T14:35:51.257Z,2.90
2018-03-22T14:38:26.602Z,2.90
2018-03-22T14:41:02.536Z,3.10
2018-03-22T14:43:37.716Z,3.10
2018-03-22T14:46:12.875Z,3.10
2018-03-22T14:48:48.034Z,3.10
2018-03-22T14:51:23.453Z,3.10
2018-03-22T14:53:58.595Z,3.10
2018-03-22T14:56:34.867Z,3.00
2018-03-22T14:59:10.217Z,3.10
2018-03-22T15:01:46.497Z,3.10
2018-03-22T15:04:22.700Z,3.10
2018-03-22T15:06:59.415Z,3.10
2018-03-22T15:09:34.666Z,3.10
2018-03-22T15:12:09.884Z,3.10
2018-03-22T15:14:45.062Z,3.10
2018-03-22T15:17:20.510Z,3.10
2018-03-22T15:19:55.891Z,3.10
2018-03-22T15:22:31.139Z,3.10
2018-03-22T15:25:06.266Z,3.10
2018-03-22T15:27:41.709Z,3.10
2018-03-22T15:30:17.048Z,3.10
2018-03-22T15:32:52.943Z,3.10
2018-03-22T15:35:29.284Z,3.10
2018-03-22T15:38:05.411Z,3.20
2018-03-22T15:40:41.182Z,3.20
2018-03-22T15:43:16.486Z,3.20
2018-03-22T15:45:51.796Z,3.20
2018-03-22T15:48:27.945Z,3.20
2018-03-22T15:51:03.224Z,3.20
2018-03-22T15:53:39.263Z,3.30
2018-03-22T15:56:14.474Z,3.30
2018-03-22T15:58:50.425Z,3.40
2018-03-22T16:01:25.866Z,3.40
2018-03-22T16:04:01.268Z,3.50
2018-03-22T16:06:37.159Z,3.40
2018-03-22T16:09:14.474Z,3.40
2018-03-22T16:11:49.861Z,3.50
2018-03-22T16:14:25.522Z,3.50
2018-03-22T16:17:00.809Z,3.60
2018-03-22T16:19:36.094Z,3.50
2018-03-22T16:22:13.340Z,3.60
2018-03-22T16:24:48.515Z,3.50
2018-03-22T16:27:23.784Z,3.60
2018-03-22T16:29:59.066Z,3.50
2018-03-22T16:32:34.489Z,3.50
2018-03-22T16:35:10.572Z,3.50
2018-03-22T16:37:46.652Z,3.60
2018-03-22T16:40:21.889Z,3.60
2018-03-22T16:42:57.369Z,3.70
2018-03-22T16:45:33.319Z,3.60
2018-03-22T16:48:08.773Z,3.60
2018-03-22T16:50:44.514Z,3.70
2018-03-22T16:53:19.782Z,3.70
2018-03-22T16:55:55.382Z,3.70
2018-03-22T16:58:30.527Z,3.60
2018-03-22T17:01:06.369Z,3.50
2018-03-22T17:03:41.826Z,3.50
2018-03-22T17:06:16.984Z,3.50
2018-03-22T17:08:52.904Z,3.60
2018-03-22T17:11:28.100Z,3.60
2018-03-22T17:14:04.433Z,3.60
2018-03-22T17:16:39.672Z,3.60
2018-03-22T17:19:14.975Z,3.70
2018-03-22T17:21:50.144Z,3.60
2018-03-22T17:24:25.500Z,3.50
2018-03-22T17:27:00.863Z,3.50
2018-03-22T17:29:36.085Z,3.50
2018-03-22T17:32:11.463Z,3.50
2018-03-22T17:34:46.728Z,3.50
2018-03-22T17:37:21.892Z,3.50
2018-03-22T17:39:57.227Z,3.50
2018-03-22T17:42:32.371Z,3.50
2018-03-22T17:45:08.240Z,3.50
2018-03-22T17:47:43.684Z,3.50
2018-03-22T17:50:18.918Z,3.50
2018-03-22T17:52:54.288Z,3.50
2018-03-22T17:55:29.665Z,3.50
2018-03-22T17:58:04.936Z,3.40
2018-03-22T18:00:40.324Z,3.50
2018-03-22T18:03:15.484Z,3.40
2018-03-22T18:05:50.581Z,3.40
2018-03-22T18:08:26.588Z,3.40
2018-03-22T18:11:02.062Z,3.40
2018-03-22T18:13:37.186Z,3.40
2018-03-22T18:16:12.569Z,3.30
2018-03-22T18:18:47.885Z,3.40
2018-03-22T18:21:24.038Z,3.30
2018-03-22T18:24:00.473Z,3.30
2018-03-22T18:26:36.550Z,3.30
2018-03-22T18:29:11.820Z,3.30
2018-03-22T18:31:47.349Z,3.30
2018-03-22T18:34:23.392Z,3.40
2018-03-22T18:36:58.552Z,3.40
2018-03-22T18:39:34.282Z,3.40
2018-03-22T18:42:10.375Z,3.40
2018-03-22T18:44:46.367Z,3.40
2018-03-22T18:47:22.325Z,3.40
2018-03-22T18:49:57.467Z,3.30
2018-03-22T18:52:32.770Z,3.30
2018-03-22T18:55:08.721Z,3.30
2018-03-22T18:57:44.131Z,3.30
2018-03-22T19:00:19.622Z,3.40
2018-03-22T19:02:54.762Z,3.40
2018-03-22T19:05:30.159Z,3.30
2018-03-22T19:08:05.680Z,3.30
2018-03-22T19:10:40.978Z,3.30
2018-03-22T19:13:16.489Z,3.40
2018-03-22T19:15:51.623Z,3.30
2018-03-22T19:18:27.082Z,3.40
2018-03-22T19:21:02.510Z,3.30
2018-03-22T19:23:38.720Z,3.30
2018-03-22T19:26:14.168Z,3.30
2018-03-22T19:28:49.671Z,3.30
2018-03-22T19:31:25.610Z,3.30
2018-03-22T19:34:01.782Z,3.30
2018-03-22T19:36:37.027Z,3.20
2018-03-22T19:39:12.668Z,3.30
2018-03-22T19:41:48.573Z,3.30
2018-03-22T19:44:24.784Z,3.30
2018-03-22T19:47:00.845Z,3.30
2018-03-22T19:49:36.180Z,3.30
2018-03-22T19:52:11.525Z,3.20
2018-03-22T19:54:46.997Z,3.30
2018-03-22T19:57:22.131Z,3.30
2018-03-22T19:59:58.024Z,3.30
2018-03-22T20:02:33.878Z,3.30
2018-03-22T20:05:09.975Z,3.30
2018-03-22T20:07:45.315Z,3.30
2018-03-22T20:10:20.491Z,3.20
2018-03-22T20:12:55.831Z,3.20
2018-03-22T20:15:31.117Z,3.20
2018-03-22T20:18:06.441Z,3.20
2018-03-22T20:20:41.743Z,3.30
2018-03-22T20:23:17.127Z,3.20
2018-03-22T20:25:53.071Z,3.20
2018-03-22T20:28:28.562Z,3.10
2018-03-22T20:31:04.531Z,3.10
2018-03-22T20:33:40.725Z,3.20
2018-03-22T20:36:16.007Z,3.10
2018-03-22T20:38:51.116Z,3.10
2018-03-22T20:41:26.435Z,3.10
2018-03-22T20:44:02.739Z,3.00
2018-03-22T20:46:37.902Z,3.00
2018-03-22T20:49:13.452Z,3.10
2018-03-22T20:51:48.712Z,3.00
2018-03-22T20:54:24.300Z,3.10
2018-03-22T20:56:59.617Z,3.00
2018-03-22T20:59:35.016Z,3.00
2018-03-22T21:02:10.971Z,3.00
2018-03-22T21:04:46.935Z,3.10
2018-03-22T21:07:22.359Z,3.10
2018-03-22T21:09:58.344Z,3.10
2018-03-22T21:12:33.482Z,3.00
2018-03-22T21:15:09.342Z,3.00
2018-03-22T21:17:45.316Z,3.00
2018-03-22T21:20:20.706Z,3.00
2018-03-22T21:22:56.849Z,2.90
2018-03-22T21:25:32.216Z,2.90
2018-03-22T21:28:08.288Z,3.00
2018-03-22T21:30:43.635Z,3.00
2018-03-22T21:33:19.628Z,3.00
2018-03-22T21:35:54.879Z,2.90
2018-03-22T21:38:30.223Z,3.00
2018-03-22T21:41:05.552Z,3.00
2018-03-22T21:46:51.902Z,3.10
2018-03-22T21:49:27.385Z,3.00
2018-03-22T21:52:20.364Z,3.00
2018-03-22T21:54:55.506Z,3.00
2018-03-22T21:57:31.566Z,3.00
2018-03-22T22:00:07.750Z,3.00
2018-03-22T22:02:43.582Z,3.00
2018-03-22T22:05:19.345Z,3.10
2018-03-22T22:07:55.351Z,3.00
2018-03-22T22:10:30.555Z,3.00
2018-03-22T22:13:05.840Z,2.90
2018-03-22T22:15:42.019Z,3.00
2018-03-22T22:18:17.296Z,3.00
2018-03-22T22:20:53.888Z,3.00
2018-03-22T22:23:29.218Z,2.90
2018-03-22T22:26:04.527Z,3.00
2018-03-22T22:28:40.224Z,2.90
2018-03-22T22:31:15.586Z,2.90
2018-03-22T22:33:50.795Z,2.90
2018-03-22T22:36:25.880Z,2.90
2018-03-22T22:39:01.907Z,2.90
2018-03-22T22:41:37.861Z,2.90
2018-03-22T22:44:13.202Z,2.90
2018-03-22T22:46:48.295Z,2.90
2018-03-22T22:49:23.487Z,2.90
2018-03-22T22:51:58.848Z,2.90
2018-03-22T22:54:34.007Z,2.90
2018-03-22T22:57:09.355Z,3.00
2018-03-22T22:59:45.099Z,2.90
2018-03-22T23:02:20.339Z,3.00
2018-03-22T23:04:56.263Z,3.00
2018-03-22T23:07:31.426Z,3.00
2018-03-22T23:10:06.737Z,3.00
2018-03-22T23:12:42.112Z,3.00
2018-03-22T23:15:17.604Z,2.90
2018-03-22T23:17:52.692Z,2.90
2018-03-22T23:20:28.006Z,2.90
2018-03-22T23:23:03.297Z,2.90
2018-03-22T23:25:38.585Z,2.80
2018-03-22T23:28:14.735Z,2.90
2018-03-22T23:30:50.333Z,2.90
2018-03-22T23:33:25.802Z,2.90
2018-03-22T23:36:00.964Z,3.00
2018-03-22T23:38:37.297Z,2.90
2018-03-22T23:41:12.456Z,2.90
2018-03-22T23:43:48.350Z,2.90
2018-03-22T23:46:23.545Z,2.80
2018-03-22T23:48:59.035Z,2.80
2018-03-22T23:51:34.378Z,2.90
2018-03-22T23:54:09.793Z,2.90
2018-03-22T23:56:45.115Z,2.90
2018-03-22T23:59:20.403Z,2.90
